createdAt,value
2023-02-22T00:03:10.610Z,8.82
2023-02-22T00:13:10.486Z,6.26
2023-02-22T00:23:10.434Z,4.67
2023-02-22T00:33:10.530Z,5.73
2023-02-22T00:43:10.603Z,7.23
2023-02-22T00:53:10.546Z,6.26
2023-02-22T01:03:10.554Z,5.28
2023-02-22T01:13:11.644Z,5.11
2023-02-22T01:23:11.580Z,7.12
2023-02-22T01:33:12.526Z,3.17
2023-02-22T01:43:13.170Z,4.13
2023-02-22T01:53:13.633Z,4.05
2023-02-22T02:03:14.528Z,3.95
2023-02-22T02:13:15.732Z,5.79
2023-02-22T02:23:15.731Z,4.39
2023-02-22T02:33:15.705Z,4.13
2023-02-22T02:43:15.713Z,1.58
2023-02-22T02:53:16.976Z,4.65
2023-02-22T03:03:16.725Z,3.94
2023-02-22T03:13:17.308Z,4.47
2023-02-22T03:23:17.666Z,2.62
2023-02-22T03:33:19.679Z,2.71
2023-02-22T03:43:20.695Z,3.59
2023-02-22T03:53:23.156Z,1.49
2023-02-22T04:03:24.713Z,2.97
2023-02-22T04:13:26.828Z,2.45
2023-02-22T04:23:27.158Z,3.06
2023-02-22T04:33:27.996Z,2.62
2023-02-22T04:43:29.713Z,5.50
2023-02-22T04:53:30.185Z,3.84
2023-02-22T05:03:31.385Z,5.07
2023-02-22T05:13:31.815Z,2.09
2023-02-22T05:23:31.834Z,3.06
2023-02-22T05:33:31.927Z,3.84
2023-02-22T05:43:31.936Z,5.85
2023-02-22T05:53:31.960Z,7.16
2023-02-22T06:03:31.925Z,4.98
2023-02-22T06:13:32.629Z,2.01
2023-02-22T06:23:33.654Z,2.97
2023-02-22T06:33:33.994Z,4.28
2023-02-22T06:43:33.994Z,4.45
2023-02-22T06:53:33.927Z,4.73
2023-02-22T07:03:33.976Z,3.96
2023-02-22T07:13:33.999Z,3.80
2023-02-22T07:23:34.038Z,5.59
2023-02-22T07:33:34.992Z,4.00
2023-02-22T07:43:35.125Z,4.21
2023-02-22T07:53:35.081Z,7.11
2023-02-22T08:03:36.056Z,5.96
2023-02-22T08:13:37.176Z,8.18
2023-02-22T08:23:38.347Z,7.40
2023-02-22T08:33:38.114Z,7.35
2023-02-22T08:43:38.131Z,3.60
2023-02-22T08:53:38.148Z,5.04
2023-02-22T09:03:38.152Z,8.19
2023-02-22T09:13:38.096Z,3.87
2023-02-22T09:23:38.167Z,6.06
2023-02-22T09:33:38.135Z,4.65
2023-02-22T09:43:40.052Z,3.33
2023-02-22T09:53:41.331Z,5.35
2023-02-22T10:03:41.212Z,4.22
2023-02-22T10:13:41.708Z,3.85
2023-02-22T10:23:42.868Z,4.82
2023-02-22T10:33:43.398Z,3.28
2023-02-22T10:43:43.397Z,3.19
2023-02-22T10:53:43.585Z,4.38
2023-02-22T11:03:45.241Z,1.95
2023-02-22T11:13:44.738Z,3.03
2023-02-22T11:23:45.417Z,2.75
2023-02-22T11:33:45.342Z,2.76
2023-02-22T11:43:45.434Z,3.55
2023-02-22T11:53:45.408Z,1.38
2023-02-22T12:03:45.510Z,2.66
2023-02-22T12:13:45.391Z,2.66
2023-02-22T12:23:45.382Z,1.38
2023-02-22T12:33:45.397Z,2.67
2023-02-22T12:43:45.497Z,0.89
2023-02-22T12:53:45.398Z,2.37
2023-02-22T13:03:45.506Z,2.38
2023-02-22T13:13:46.669Z,2.97
2023-02-22T13:23:46.487Z,2.87
2023-02-22T13:33:47.078Z,2.28
2023-02-22T13:43:47.532Z,1.98
2023-02-22T13:53:47.575Z,1.98
2023-02-22T14:03:47.786Z,3.97
2023-02-22T14:13:47.542Z,1.79
2023-02-22T14:23:50.716Z,3.18
2023-02-22T14:33:50.607Z,3.97
2023-02-22T14:43:50.731Z,2.19
2023-02-22T14:53:50.536Z,1.69
2023-02-22T15:04:02.006Z,1.39
2023-02-22T15:13:52.690Z,2.09
2023-02-22T15:23:53.099Z,3.28
2023-02-22T15:33:54.426Z,2.68
2023-02-22T15:43:54.686Z,2.97
2023-02-22T15:53:54.656Z,2.38
2023-02-22T16:03:55.149Z,1.88
2023-02-22T16:13:56.779Z,2.57
2023-02-22T16:24:10.304Z,2.67
2023-02-22T16:33:59.778Z,4.64
2023-02-22T16:43:59.748Z,3.75
2023-02-22T16:53:59.806Z,4.53
2023-02-22T17:04:00.477Z,6.79
2023-02-22T17:14:00.763Z,4.23
2023-02-22T17:24:00.978Z,6.77
2023-02-22T17:34:01.763Z,7.06
2023-02-22T17:44:01.921Z,6.86
2023-02-22T17:54:01.934Z,3.03
2023-02-22T18:04:01.879Z,9.00
2023-02-22T18:14:02.124Z,5.76
2023-02-22T18:24:01.894Z,4.00
2023-02-22T18:34:01.879Z,5.07
2023-02-22T18:44:03.513Z,8.77
2023-02-22T18:54:03.948Z,5.65
2023-02-22T19:04:03.900Z,7.98
2023-02-22T19:14:04.790Z,7.87
2023-02-22T19:24:05.051Z,7.38
2023-02-22T19:34:04.904Z,7.86
2023-02-22T19:44:04.898Z,7.85
2023-02-22T19:54:19.211Z,5.71
2023-02-22T20:04:21.088Z,10.73
2023-02-22T20:14:22.685Z,8.98
2023-02-22T20:24:22.960Z,6.75
2023-02-22T20:34:25.142Z,7.32
2023-02-22T20:44:25.100Z,8.47
2023-02-22T20:54:37.778Z,9.23
2023-02-22T21:04:38.085Z,10.18
2023-02-22T21:14:38.119Z,9.70
2023-02-22T21:24:38.144Z,11.03
2023-02-22T21:34:38.171Z,10.26
2023-02-22T21:44:38.094Z,12.36
2023-02-22T21:54:38.246Z,11.39
2023-02-22T22:04:38.096Z,11.00
2023-02-22T22:14:38.199Z,11.47
2023-02-22T22:24:40.192Z,14.88
2023-02-22T22:34:43.292Z,14.67
2023-02-22T22:44:43.272Z,13.50
2023-02-22T22:54:43.329Z,16.43
2023-02-22T23:04:43.183Z,16.03
2023-02-22T23:14:44.084Z,18.75
2023-02-22T23:24:45.077Z,14.00
2023-02-22T23:34:47.119Z,20.31
2023-02-22T23:44:47.283Z,14.53
2023-02-22T23:54:51.358Z,14.52
